createdAt,value
2023-05-15T00:00:45.599Z,100044.11
2023-05-15T00:01:48.319Z,100047.68
2023-05-15T00:02:50.878Z,100045.89
2023-05-15T00:03:54.427Z,100053.10
2023-05-15T00:04:56.667Z,100051.94
2023-05-15T00:05:59.283Z,100046.05
2023-05-15T00:07:01.588Z,100042.03
2023-05-15T00:08:04.283Z,100043.38
2023-05-15T00:09:06.780Z,100042.62
2023-05-15T00:10:10.031Z,100045.48
2023-05-15T00:11:12.293Z,100042.21
2023-05-15T00:12:15.763Z,100037.25
2023-05-15T00:13:18.523Z,100040.70
2023-05-15T00:14:20.730Z,100039.88
2023-05-15T00:15:22.937Z,100041.75
2023-05-15T00:16:25.572Z,100033.98
2023-05-15T00:17:27.941Z,100043.26
2023-05-15T00:18:30.377Z,100048.51
2023-05-15T00:19:33.080Z,100041.57
2023-05-15T00:20:35.654Z,100034.44
2023-05-15T00:21:37.862Z,100041.34
2023-05-15T00:22:40.272Z,100032.75
2023-05-15T00:23:42.584Z,100038.00
2023-05-15T00:24:44.584Z,100043.03
2023-05-15T00:25:46.880Z,100042.10
2023-05-15T00:26:49.171Z,100044.94
2023-05-15T00:27:51.411Z,100040.33
2023-05-15T00:28:53.421Z,100039.06
2023-05-15T00:29:55.325Z,100035.50
2023-05-15T00:30:57.771Z,100046.23
2023-05-15T00:32:01.217Z,100049.98
2023-05-15T00:33:03.405Z,100044.09
2023-05-15T00:34:06.597Z,100046.06
2023-05-15T00:35:09.068Z,100042.27
2023-05-15T00:36:12.043Z,100040.80
2023-05-15T00:37:14.283Z,100042.45
2023-05-15T00:38:16.372Z,100046.23
2023-05-15T00:39:20.254Z,100037.71
2023-05-15T00:40:25.851Z,100037.52
2023-05-15T00:41:31.669Z,100041.09
2023-05-15T00:42:34.480Z,100038.54
2023-05-15T00:43:39.967Z,100036.23
2023-05-15T00:44:43.639Z,100034.01
2023-05-15T00:45:47.909Z,100039.45
2023-05-15T00:46:52.816Z,100034.30
2023-05-15T00:47:57.327Z,100039.34
2023-05-15T00:49:00.779Z,100037.57
2023-05-15T00:50:03.921Z,100039.27
2023-05-15T00:51:07.639Z,100027.20
2023-05-15T00:52:10.835Z,100026.16
2023-05-15T00:53:13.391Z,100033.21
2023-05-15T00:54:15.841Z,100028.90
2023-05-15T00:55:18.232Z,100031.62
2023-05-15T00:56:21.149Z,100033.39
2023-05-15T00:57:24.739Z,100033.50
2023-05-15T00:58:28.198Z,100036.87
2023-05-15T00:59:32.170Z,100024.05
2023-05-15T01:00:35.561Z,100032.03
2023-05-15T01:01:39.639Z,100022.94
2023-05-15T01:02:42.010Z,100022.94
2023-05-15T01:03:45.729Z,100026.72
2023-05-15T01:04:49.420Z,100026.72
2023-05-15T01:05:51.682Z,100026.72
2023-05-15T01:06:54.205Z,100024.27
2023-05-15T01:08:03.419Z,100028.59
2023-05-15T01:09:10.137Z,100024.59
2023-05-15T01:10:14.094Z,100024.27
2023-05-15T01:11:17.381Z,100021.86
2023-05-15T01:12:24.776Z,100016.61
2023-05-15T01:13:28.337Z,100020.17
2023-05-15T01:14:30.356Z,100017.66
2023-05-15T01:15:32.569Z,100017.01
2023-05-15T01:16:38.102Z,100011.94
2023-05-15T01:17:40.415Z,100010.25
2023-05-15T01:18:42.864Z,100011.77
2023-05-15T01:19:48.451Z,100011.77
2023-05-15T01:21:00.546Z,100007.23
2023-05-15T01:22:23.188Z,100011.37
2023-05-15T01:23:44.943Z,100007.81
2023-05-15T01:25:15.426Z,100010.50
2023-05-15T01:26:25.496Z,100017.73
2023-05-15T01:27:46.726Z,100016.15
2023-05-15T01:28:53.499Z,100014.85
2023-05-15T01:30:11.337Z,100015.17
2023-05-15T01:31:17.235Z,100008.78
2023-05-15T01:32:38.641Z,100014.56
2023-05-15T01:33:45.406Z,100018.88
2023-05-15T01:35:10.859Z,100015.43
2023-05-15T01:36:28.598Z,100014.78
2023-05-15T01:37:35.614Z,100014.46
2023-05-15T01:38:47.688Z,100007.73
2023-05-15T01:39:53.879Z,100011.94
2023-05-15T01:41:15.905Z,100003.78
2023-05-15T01:42:20.115Z,100007.34
2023-05-15T01:43:27.727Z,100010.08
2023-05-15T01:44:34.685Z,100003.31
2023-05-15T01:45:38.961Z,100012.16
2023-05-15T01:46:45.048Z,100005.01
2023-05-15T01:47:49.073Z,100008.38
2023-05-15T01:48:52.090Z,100008.20
2023-05-15T01:49:56.962Z,100006.52
2023-05-15T01:51:02.982Z,100011.77
2023-05-15T01:52:11.813Z,100003.24
2023-05-15T01:53:14.874Z,100008.38
2023-05-15T01:54:18.522Z,100011.77
2023-05-15T01:55:23.772Z,100010.91
2023-05-15T01:56:28.043Z,100004.72
2023-05-15T01:57:31.456Z,100008.20
2023-05-15T01:58:35.723Z,100002.48
2023-05-15T01:59:39.845Z,100002.48
2023-05-15T02:00:44.883Z,100006.70
2023-05-15T02:01:47.869Z,100006.70
2023-05-15T02:02:50.984Z,100005.01
2023-05-15T02:03:55.492Z,100001.66
2023-05-15T02:04:59.200Z,100001.66
2023-05-15T02:06:03.012Z,100004.47
2023-05-15T02:07:06.695Z,100009.17
2023-05-15T02:08:12.295Z,100006.33
2023-05-15T02:09:15.035Z,100012.82
2023-05-15T02:10:19.032Z,100010.09
2023-05-15T02:11:22.422Z,100005.67
2023-05-15T02:12:27.112Z,100012.44
2023-05-15T02:13:31.484Z,100011.39
2023-05-15T02:14:36.992Z,100007.94
2023-05-15T02:15:39.466Z,100006.15
2023-05-15T02:16:42.793Z,100006.80
2023-05-15T02:17:45.328Z,100003.14
2023-05-15T02:18:48.937Z,100010.86
2023-05-15T02:19:51.336Z,100003.71
2023-05-15T02:20:53.841Z,100004.57
2023-05-15T02:21:55.981Z,100002.88
2023-05-15T02:22:58.213Z,100010.86
2023-05-15T02:24:00.638Z,100008.38
2023-05-15T02:25:03.388Z,100003.92
2023-05-15T02:26:21.693Z,100002.38
2023-05-15T02:27:29.632Z,100001.01
2023-05-15T02:28:36.495Z,100013.65
2023-05-15T02:29:57.546Z,100008.41
2023-05-15T02:31:03.476Z,100010.48
2023-05-15T02:32:22.994Z,100015.55
2023-05-15T02:33:48.441Z,100015.73
2023-05-15T02:34:56.079Z,100014.03
2023-05-15T02:36:14.238Z,100012.73
2023-05-15T02:37:20.619Z,100016.28
2023-05-15T02:38:35.380Z,100013.48
2023-05-15T02:39:40.037Z,100008.14
2023-05-15T02:40:45.544Z,100007.31
2023-05-15T02:41:48.888Z,100012.34
2023-05-15T02:42:53.760Z,100017.41
2023-05-15T02:43:56.759Z,100005.06
2023-05-15T02:45:01.070Z,100007.36
2023-05-15T02:46:07.297Z,100008.30
2023-05-15T02:47:10.758Z,100008.23
2023-05-15T02:48:16.255Z,100007.47
2023-05-15T02:49:19.043Z,100004.84
2023-05-15T02:50:22.209Z,100010.64
2023-05-15T02:51:25.274Z,100009.92
2023-05-15T02:52:27.864Z,100010.56
2023-05-15T02:53:31.403Z,100009.53
2023-05-15T02:54:33.783Z,100013.63
2023-05-15T02:55:38.144Z,100004.86
2023-05-15T02:56:40.377Z,100006.69
2023-05-15T02:57:42.701Z,100009.17
2023-05-15T02:58:45.973Z,100006.27
2023-05-15T02:59:48.958Z,100005.94
2023-05-15T03:00:51.363Z,100008.38
2023-05-15T03:01:53.557Z,100001.27
2023-05-15T03:02:55.811Z,100000.41
2023-05-15T03:03:58.308Z,100004.61
2023-05-15T03:05:00.785Z,100006.12
2023-05-15T03:06:03.161Z,100006.02
2023-05-15T03:07:05.339Z,100003.50
2023-05-15T03:08:07.539Z,100006.12
2023-05-15T03:09:09.765Z,100005.91
2023-05-15T03:10:14.927Z,100008.45
2023-05-15T03:11:18.677Z,100007.41
2023-05-15T03:12:20.715Z,100010.97
2023-05-15T03:13:22.722Z,100014.53
2023-05-15T03:14:25.033Z,100012.84
2023-05-15T03:15:27.482Z,100013.77
2023-05-15T03:16:30.009Z,100019.89
2023-05-15T03:17:32.390Z,100021.65
2023-05-15T03:18:34.760Z,100021.86
2023-05-15T03:19:37.106Z,100012.80
2023-05-15T03:20:40.488Z,100019.92
2023-05-15T03:21:42.749Z,100024.31
2023-05-15T03:22:45.171Z,100022.65
2023-05-15T03:23:47.208Z,100024.70
2023-05-15T03:24:49.644Z,100023.04
2023-05-15T03:25:52.535Z,100027.42
2023-05-15T03:26:54.620Z,100023.22
2023-05-15T03:27:56.865Z,100027.53
2023-05-15T03:29:00.780Z,100023.04
2023-05-15T03:30:04.414Z,100022.83
2023-05-15T03:31:08.010Z,100023.66
2023-05-15T03:32:11.476Z,100023.48
2023-05-15T03:33:14.784Z,100022.44
2023-05-15T03:34:17.170Z,100017.95
2023-05-15T03:35:19.268Z,100024.13
2023-05-15T03:36:21.974Z,100019.53
2023-05-15T03:37:24.945Z,100025.60
2023-05-15T03:38:27.047Z,100025.60
2023-05-15T03:39:29.556Z,100025.42
2023-05-15T03:40:32.914Z,100026.90
2023-05-15T03:41:36.225Z,100019.78
2023-05-15T03:42:38.288Z,100022.11
2023-05-15T03:43:40.615Z,100029.05
2023-05-15T03:44:42.709Z,100022.55
2023-05-15T03:45:44.741Z,100023.00
2023-05-15T03:46:47.894Z,100021.95
2023-05-15T03:47:50.328Z,100022.49
2023-05-15T03:48:54.318Z,100023.06
2023-05-15T03:49:56.644Z,100024.53
2023-05-15T03:50:59.926Z,100022.02
2023-05-15T03:52:02.294Z,100021.80
2023-05-15T03:53:04.600Z,100015.49
2023-05-15T03:54:06.956Z,100018.88
2023-05-15T03:55:09.430Z,100016.13
2023-05-15T03:56:12.020Z,100020.34
2023-05-15T03:57:14.261Z,100020.15
2023-05-15T03:58:16.985Z,100025.21
2023-05-15T03:59:19.360Z,100021.62
2023-05-15T04:00:23.734Z,100018.05
2023-05-15T04:01:26.346Z,100021.20
2023-05-15T04:02:29.739Z,100025.63
2023-05-15T04:03:33.008Z,100026.45
2023-05-15T04:04:35.339Z,100026.45
2023-05-15T04:05:37.717Z,100031.72
2023-05-15T04:06:40.246Z,100028.38
2023-05-15T04:07:42.564Z,100029.01
2023-05-15T04:08:44.756Z,100031.41
2023-05-15T04:09:46.893Z,100040.16
2023-05-15T04:10:49.118Z,100027.95
2023-05-15T04:11:51.439Z,100031.41
2023-05-15T04:12:53.773Z,100027.95
2023-05-15T04:13:56.000Z,100031.33
2023-05-15T04:15:01.203Z,100026.08
2023-05-15T04:16:04.514Z,100026.91
2023-05-15T04:17:06.723Z,100022.48
2023-05-15T04:18:10.073Z,100026.80
2023-05-15T04:19:12.998Z,100023.23
2023-05-15T04:20:18.332Z,100025.86
2023-05-15T04:21:21.030Z,100023.12
2023-05-15T04:22:23.443Z,100025.86
2023-05-15T04:23:27.000Z,100024.17
2023-05-15T04:24:29.246Z,100019.77
2023-05-15T04:25:32.305Z,100025.66
2023-05-15T04:26:34.845Z,100027.35
2023-05-15T04:27:37.818Z,100028.18
2023-05-15T04:28:52.437Z,100020.82
2023-05-15T04:29:45.971Z,100025.97
2023-05-15T04:30:48.400Z,100030.28
2023-05-15T04:31:50.822Z,100029.34
2023-05-15T04:32:52.991Z,100033.69
2023-05-15T04:33:56.334Z,100030.95
2023-05-15T04:34:59.184Z,100026.55
2023-05-15T04:36:01.390Z,100036.02
2023-05-15T04:37:04.360Z,100028.95
2023-05-15T04:38:06.730Z,100033.27
2023-05-15T04:39:09.567Z,100028.77
2023-05-15T04:40:14.240Z,100028.77
2023-05-15T04:41:16.285Z,100029.52
2023-05-15T04:42:18.384Z,100028.65
2023-05-15T04:43:20.799Z,100029.40
2023-05-15T04:44:24.948Z,100030.34
2023-05-15T04:45:27.299Z,100020.13
2023-05-15T04:46:29.873Z,100020.13
2023-05-15T04:47:32.506Z,100027.82
2023-05-15T04:48:34.656Z,100022.45
2023-05-15T04:49:37.139Z,100023.28
2023-05-15T04:50:40.272Z,100025.08
2023-05-15T04:51:42.776Z,100017.94
2023-05-15T04:52:45.186Z,100022.34
2023-05-15T04:53:47.303Z,100022.34
2023-05-15T04:54:50.515Z,100017.94
2023-05-15T04:55:53.103Z,100027.41
2023-05-15T04:56:55.599Z,100023.91
2023-05-15T04:57:58.110Z,100024.03
2023-05-15T04:59:00.620Z,100021.52
2023-05-15T05:00:05.607Z,100017.08
2023-05-15T05:01:08.091Z,100011.62
2023-05-15T05:02:10.586Z,100020.23
2023-05-15T05:03:12.742Z,100017.72
2023-05-15T05:04:16.895Z,100022.97
2023-05-15T05:05:20.087Z,100024.55
2023-05-15T05:06:24.099Z,100027.80
2023-05-15T05:07:26.424Z,100024.13
2023-05-15T05:08:28.425Z,100017.73
2023-05-15T05:09:31.136Z,100017.50
2023-05-15T05:10:36.169Z,100018.12
2023-05-15T05:11:44.485Z,100018.05
2023-05-15T05:12:46.627Z,100026.45
2023-05-15T05:13:49.553Z,100023.59
2023-05-15T05:14:51.733Z,100032.22
2023-05-15T05:15:53.977Z,100027.91
2023-05-15T05:16:56.363Z,100025.27
2023-05-15T05:17:58.696Z,100024.84
2023-05-15T05:19:01.476Z,100022.76
2023-05-15T05:20:04.485Z,100028.73
2023-05-15T05:21:07.383Z,100021.27
2023-05-15T05:22:10.377Z,100021.27
2023-05-15T05:23:14.778Z,100026.20
2023-05-15T05:24:16.986Z,100025.23
2023-05-15T05:25:19.386Z,100023.34
2023-05-15T05:26:22.417Z,100019.64
2023-05-15T05:27:24.643Z,100018.50
2023-05-15T05:28:27.861Z,100017.20
2023-05-15T05:29:31.046Z,100022.02
2023-05-15T05:30:33.739Z,100016.55
2023-05-15T05:31:36.058Z,100009.16
2023-05-15T05:32:38.570Z,100018.66
2023-05-15T05:33:40.847Z,100010.43
2023-05-15T05:34:43.084Z,100009.27
2023-05-15T05:35:45.413Z,100015.98
2023-05-15T05:36:48.656Z,100013.35
2023-05-15T05:37:52.146Z,100021.13
2023-05-15T05:38:55.126Z,100011.45
2023-05-15T05:39:57.340Z,100018.17
2023-05-15T05:41:00.855Z,100012.69
2023-05-15T05:42:04.285Z,100011.50
2023-05-15T05:43:06.482Z,100015.58
2023-05-15T05:44:08.598Z,100018.12
2023-05-15T05:45:11.299Z,100012.73
2023-05-15T05:46:13.682Z,100015.16
2023-05-15T05:47:15.971Z,100015.86
2023-05-15T05:48:18.499Z,100012.16
2023-05-15T05:49:20.744Z,100014.45
2023-05-15T05:50:23.767Z,100013.38
2023-05-15T05:51:25.935Z,100012.31
2023-05-15T05:52:29.955Z,100017.37
2023-05-15T05:53:32.259Z,100013.78
2023-05-15T05:54:34.394Z,100009.95
2023-05-15T05:55:36.715Z,100011.88
2023-05-15T05:56:39.035Z,100009.95
2023-05-15T05:57:41.376Z,100014.06
2023-05-15T05:58:43.698Z,100009.61
2023-05-15T05:59:46.025Z,100009.48
2023-05-15T06:00:49.117Z,100004.95
2023-05-15T06:01:51.406Z,100007.13
2023-05-15T06:02:57.874Z,100009.55
2023-05-15T06:04:01.780Z,100003.07
2023-05-15T06:05:06.719Z,100005.48
2023-05-15T06:06:09.182Z,100002.00
2023-05-15T06:07:11.848Z,100005.36
2023-05-15T06:08:14.655Z,100005.97
2023-05-15T06:09:17.377Z,100003.09
2023-05-15T06:10:20.270Z,100000.27
2023-05-15T06:11:24.968Z,100001.09
2023-05-15T06:12:27.409Z,100005.06
2023-05-15T06:13:30.696Z,100005.54
2023-05-15T06:14:32.959Z,100001.00
2023-05-15T06:15:35.415Z,100004.23
2023-05-15T06:16:37.545Z,100004.11
2023-05-15T06:17:40.681Z,100005.58
2023-05-15T06:18:42.949Z,99998.27
2023-05-15T06:19:46.109Z,99995.50
2023-05-15T06:20:48.574Z,100003.89
2023-05-15T06:21:50.691Z,99996.58
2023-05-15T06:22:52.898Z,99997.05
2023-05-15T06:23:55.000Z,99995.99
2023-05-15T06:24:57.015Z,99994.78
2023-05-15T06:26:00.169Z,99991.19
2023-05-15T06:27:03.353Z,99994.78
2023-05-15T06:28:05.402Z,99993.09
2023-05-15T06:29:07.505Z,99994.78
2023-05-15T06:30:11.170Z,99993.83
2023-05-15T06:31:13.716Z,99999.57
2023-05-15T06:32:15.891Z,99992.98
2023-05-15T06:33:18.512Z,99992.98
2023-05-15T06:34:20.759Z,99995.27
2023-05-15T06:35:26.418Z,99993.32
2023-05-15T06:36:29.476Z,99993.09
2023-05-15T06:37:31.744Z,99995.47
2023-05-15T06:38:33.967Z,99985.50
2023-05-15T06:39:37.118Z,99995.97
2023-05-15T06:40:40.270Z,99989.33
2023-05-15T06:41:42.651Z,99986.59
2023-05-15T06:42:46.692Z,99986.33
2023-05-15T06:43:48.908Z,99997.61
2023-05-15T06:44:51.116Z,99988.63
2023-05-15T06:45:53.363Z,99991.14
2023-05-15T06:46:56.031Z,99993.65
2023-05-15T06:48:01.395Z,99984.67
2023-05-15T06:49:02.340Z,99985.36
2023-05-15T06:50:07.105Z,99986.91
2023-05-15T06:51:09.271Z,99983.18
2023-05-15T06:52:11.489Z,99982.95
2023-05-15T06:53:14.615Z,99986.05
2023-05-15T06:54:18.495Z,99992.50
2023-05-15T06:55:20.776Z,99986.98
2023-05-15T06:56:23.512Z,99988.39
2023-05-15T06:57:26.268Z,99983.38
2023-05-15T06:58:28.402Z,99989.36
2023-05-15T06:59:32.485Z,99984.80
2023-05-15T07:00:35.637Z,99983.84
2023-05-15T07:01:37.969Z,99975.91
2023-05-15T07:02:40.579Z,99982.61
2023-05-15T07:03:42.837Z,99975.41
2023-05-15T07:04:45.153Z,99979.59
2023-05-15T07:05:48.389Z,99976.57
2023-05-15T07:06:50.656Z,99977.98
2023-05-15T07:07:52.767Z,99973.28
2023-05-15T07:08:56.195Z,99976.40
2023-05-15T07:09:59.873Z,99971.70
2023-05-15T07:11:02.298Z,99980.31
2023-05-15T07:12:05.777Z,99973.24
2023-05-15T07:13:08.168Z,99977.63
2023-05-15T07:14:10.479Z,99977.63
2023-05-15T07:15:13.201Z,99977.35
2023-05-15T07:16:15.807Z,99982.42
2023-05-15T07:17:18.747Z,99973.53
2023-05-15T07:18:21.188Z,99972.67
2023-05-15T07:19:26.829Z,99978.55
2023-05-15T07:20:32.300Z,99977.14
2023-05-15T07:21:33.844Z,99970.89
2023-05-15T07:22:44.640Z,99974.08
2023-05-15T07:23:40.439Z,99974.66
2023-05-15T07:24:42.552Z,99966.73
2023-05-15T07:25:46.209Z,99977.77
2023-05-15T07:26:58.016Z,99977.77
2023-05-15T07:27:53.618Z,99966.09
2023-05-15T07:28:55.886Z,99972.92
2023-05-15T07:29:58.122Z,99972.92
2023-05-15T07:31:02.746Z,99971.67
2023-05-15T07:32:05.218Z,99970.33
2023-05-15T07:33:08.716Z,99970.65
2023-05-15T07:34:11.472Z,99971.80
2023-05-15T07:35:13.729Z,99971.27
2023-05-15T07:36:16.093Z,99965.55
2023-05-15T07:37:19.254Z,99970.45
2023-05-15T07:38:21.615Z,99964.33
2023-05-15T07:39:23.986Z,99966.58
2023-05-15T07:40:27.498Z,99959.32
2023-05-15T07:41:31.932Z,99963.79
2023-05-15T07:42:34.568Z,99962.11
2023-05-15T07:43:37.019Z,99964.61
2023-05-15T07:44:41.344Z,99957.64
2023-05-15T07:45:46.741Z,99958.21
2023-05-15T07:46:49.265Z,99960.74
2023-05-15T07:47:51.619Z,99961.31
2023-05-15T07:48:54.125Z,99957.55
2023-05-15T07:49:57.462Z,99954.94
2023-05-15T07:51:01.163Z,99954.94
2023-05-15T07:52:04.550Z,99957.47
2023-05-15T07:53:06.571Z,99963.62
2023-05-15T07:54:08.783Z,99961.39
2023-05-15T07:55:11.976Z,99954.73
2023-05-15T07:56:17.398Z,99958.77
2023-05-15T07:57:20.208Z,99958.36
2023-05-15T07:58:22.757Z,99958.92
2023-05-15T07:59:27.573Z,99955.01
2023-05-15T08:00:30.343Z,99955.01
2023-05-15T08:01:33.063Z,99954.30
2023-05-15T08:02:35.715Z,99955.01
2023-05-15T08:03:38.143Z,99946.36
2023-05-15T08:04:41.126Z,99947.63
2023-05-15T08:05:43.807Z,99950.13
2023-05-15T08:06:46.280Z,99950.13
2023-05-15T08:07:51.572Z,99946.09
2023-05-15T08:08:54.069Z,99950.02
2023-05-15T08:09:56.308Z,99946.10
2023-05-15T08:10:59.490Z,99947.52
2023-05-15T08:12:21.264Z,99938.56
2023-05-15T08:13:23.808Z,99936.92
2023-05-15T08:14:26.225Z,99938.30
2023-05-15T08:15:28.909Z,99942.21
2023-05-15T08:16:31.850Z,99941.66
2023-05-15T08:17:34.273Z,99944.00
2023-05-15T08:18:36.943Z,99941.50
2023-05-15T08:19:39.205Z,99939.25
2023-05-15T08:20:41.665Z,99943.58
2023-05-15T08:21:43.877Z,99939.69
2023-05-15T08:22:45.997Z,99942.77
2023-05-15T08:23:48.253Z,99938.14
2023-05-15T08:24:50.467Z,99939.70
2023-05-15T08:25:52.695Z,99933.28
2023-05-15T08:26:55.323Z,99934.66
2023-05-15T08:27:57.656Z,99934.23
2023-05-15T08:28:59.976Z,99931.42
2023-05-15T08:30:03.517Z,99937.43
2023-05-15T08:31:06.008Z,99930.84
2023-05-15T08:32:09.909Z,99929.17
2023-05-15T08:33:12.393Z,99919.02
2023-05-15T08:34:14.809Z,99930.32
2023-05-15T08:35:17.066Z,99925.42
2023-05-15T08:36:21.084Z,99920.82
2023-05-15T08:37:23.764Z,99927.38
2023-05-15T08:38:25.991Z,99926.52
2023-05-15T08:39:28.305Z,99922.89
2023-05-15T08:40:38.928Z,99924.57
2023-05-15T08:41:41.093Z,99928.59
2023-05-15T08:42:47.031Z,99919.78
2023-05-15T08:43:53.199Z,99928.44
2023-05-15T08:44:56.088Z,99921.85
2023-05-15T08:46:00.380Z,99920.29
2023-05-15T08:47:04.807Z,99928.64
2023-05-15T08:48:13.695Z,99924.88
2023-05-15T08:49:35.215Z,99923.05
2023-05-15T08:50:40.387Z,99924.42
2023-05-15T08:51:42.738Z,99921.09
2023-05-15T08:52:47.852Z,99920.51
2023-05-15T08:53:50.914Z,99917.55
2023-05-15T08:54:53.785Z,99919.09
2023-05-15T08:55:56.798Z,99916.32
2023-05-15T08:57:01.986Z,99920.08
2023-05-15T08:58:04.594Z,99920.08
2023-05-15T08:59:07.432Z,99913.79
2023-05-15T09:00:14.414Z,99909.58
2023-05-15T09:01:17.145Z,99921.18
2023-05-15T09:02:21.298Z,99912.38
2023-05-15T09:03:24.567Z,99907.17
2023-05-15T09:04:27.565Z,99905.34
2023-05-15T09:05:31.398Z,99912.86
2023-05-15T09:06:34.202Z,99905.97
2023-05-15T09:07:38.316Z,99908.94
2023-05-15T09:08:43.011Z,99911.28
2023-05-15T09:09:46.060Z,99908.34
2023-05-15T09:10:49.604Z,99913.34
2023-05-15T09:11:53.133Z,99903.09
2023-05-15T09:12:57.392Z,99909.41
2023-05-15T09:14:00.333Z,99900.52
2023-05-15T09:15:12.928Z,99892.64
2023-05-15T09:16:16.322Z,99899.31
2023-05-15T09:17:18.635Z,99900.86
2023-05-15T09:18:22.198Z,99897.27
2023-05-15T09:19:24.477Z,99895.14
2023-05-15T09:20:30.268Z,99898.89
2023-05-15T09:21:35.493Z,99899.72
2023-05-15T09:22:37.690Z,99891.95
2023-05-15T09:23:40.484Z,99901.29
2023-05-15T09:24:45.007Z,99902.72
2023-05-15T09:25:49.680Z,99901.73
2023-05-15T09:27:03.572Z,99903.31
2023-05-15T09:28:12.552Z,99896.74
2023-05-15T09:29:18.910Z,99895.53
2023-05-15T09:30:22.364Z,99889.61
2023-05-15T09:31:27.077Z,99896.36
2023-05-15T09:32:30.650Z,99890.44
2023-05-15T09:33:35.418Z,99890.39
2023-05-15T09:34:39.863Z,99891.16
2023-05-15T09:35:42.119Z,99882.40
2023-05-15T09:36:45.020Z,99890.44
2023-05-15T09:37:51.109Z,99885.65
2023-05-15T09:38:58.564Z,99881.84
2023-05-15T09:40:08.960Z,99877.84
2023-05-15T09:41:10.994Z,99884.69
2023-05-15T09:42:16.442Z,99883.45
2023-05-15T09:43:18.574Z,99880.42
2023-05-15T09:44:26.877Z,99880.42
2023-05-15T09:45:30.584Z,99881.41
2023-05-15T09:46:36.022Z,99892.27
2023-05-15T09:47:38.517Z,99881.33
2023-05-15T09:48:41.485Z,99882.72
2023-05-15T09:49:45.001Z,99883.16
2023-05-15T09:50:48.040Z,99875.30
2023-05-15T09:51:50.836Z,99882.69
2023-05-15T09:52:53.770Z,99863.23
2023-05-15T09:53:56.476Z,99863.23
2023-05-15T09:54:58.819Z,99876.03
2023-05-15T09:56:03.055Z,99873.67
2023-05-15T09:57:13.786Z,99874.89
2023-05-15T09:58:19.257Z,99876.44
2023-05-15T09:59:21.814Z,99870.33
2023-05-15T10:00:25.950Z,99869.03
2023-05-15T10:01:30.552Z,99870.28
2023-05-15T10:02:34.127Z,99873.13
2023-05-15T10:03:36.422Z,99875.14
2023-05-15T10:04:41.106Z,99877.13
2023-05-15T10:05:44.907Z,99876.97
2023-05-15T10:06:48.432Z,99869.45
2023-05-15T10:07:54.962Z,99878.20
2023-05-15T10:08:57.916Z,99877.73
2023-05-15T10:10:05.302Z,99885.83
2023-05-15T10:11:08.417Z,99877.97
2023-05-15T10:12:12.342Z,99869.34
2023-05-15T10:13:15.043Z,99875.66
2023-05-15T10:14:19.655Z,99873.98
2023-05-15T10:15:23.035Z,99874.70
2023-05-15T10:16:27.481Z,99867.78
2023-05-15T10:17:33.379Z,99871.45
2023-05-15T10:18:38.741Z,99870.16
2023-05-15T10:19:56.675Z,99868.14
2023-05-15T10:20:48.292Z,99868.14
2023-05-15T10:21:53.320Z,99864.83
2023-05-15T10:22:56.385Z,99865.16
2023-05-15T10:24:01.380Z,99868.53
2023-05-15T10:25:27.196Z,99869.83
2023-05-15T10:26:37.847Z,99869.28
2023-05-15T10:27:41.224Z,99864.11
2023-05-15T10:28:46.782Z,99863.22
2023-05-15T10:29:51.050Z,99865.41
2023-05-15T10:30:55.514Z,99856.89
2023-05-15T10:32:01.641Z,99864.36
2023-05-15T10:33:05.310Z,99863.87
2023-05-15T10:34:10.660Z,99871.19
2023-05-15T10:35:12.993Z,99865.53
2023-05-15T10:36:17.564Z,99862.94
2023-05-15T10:37:21.346Z,99865.48
2023-05-15T10:38:25.913Z,99861.48
2023-05-15T10:39:28.761Z,99860.67
2023-05-15T10:40:34.155Z,99864.52
2023-05-15T10:41:38.300Z,99858.16
2023-05-15T10:42:44.470Z,99861.17
2023-05-15T10:43:48.312Z,99860.17
2023-05-15T10:44:52.353Z,99856.52
2023-05-15T10:45:56.608Z,99855.84
2023-05-15T10:46:59.562Z,99854.84
2023-05-15T10:48:05.159Z,99853.50
2023-05-15T10:49:08.062Z,99851.19
2023-05-15T10:50:14.106Z,99846.67
2023-05-15T10:51:18.578Z,99851.67
2023-05-15T10:52:22.267Z,99849.84
2023-05-15T10:53:25.845Z,99847.17
2023-05-15T10:54:30.146Z,99850.69
2023-05-15T10:55:32.592Z,99845.84
2023-05-15T10:56:37.477Z,99854.48
2023-05-15T10:57:40.372Z,99847.83
2023-05-15T10:58:50.541Z,99842.98
2023-05-15T10:59:53.793Z,99846.56
2023-05-15T11:00:56.647Z,99841.39
2023-05-15T11:02:05.794Z,99841.03
2023-05-15T11:03:08.137Z,99837.18
2023-05-15T11:04:16.133Z,99840.39
2023-05-15T11:05:19.048Z,99830.35
2023-05-15T11:06:24.963Z,99835.08
2023-05-15T11:07:27.762Z,99829.45
2023-05-15T11:08:30.722Z,99834.81
2023-05-15T11:09:34.784Z,99839.52
2023-05-15T11:10:38.813Z,99832.19
2023-05-15T11:11:59.715Z,99832.42
2023-05-15T11:13:02.370Z,99832.42
2023-05-15T11:14:08.243Z,99832.02
2023-05-15T11:15:14.111Z,99832.11
2023-05-15T11:16:24.375Z,99830.73
2023-05-15T11:17:27.808Z,99824.76
2023-05-15T11:18:30.616Z,99818.87
2023-05-15T11:19:55.627Z,99814.70
2023-05-15T11:21:01.645Z,99819.33
2023-05-15T11:22:31.950Z,99813.52
2023-05-15T11:23:41.420Z,99817.13
2023-05-15T11:24:55.177Z,99821.06
2023-05-15T11:25:58.545Z,99817.02
2023-05-15T11:27:04.747Z,99811.36
2023-05-15T11:28:10.570Z,99809.67
2023-05-15T11:29:19.476Z,99808.44
2023-05-15T11:30:24.697Z,99809.78
2023-05-15T11:31:32.618Z,99805.40
2023-05-15T11:33:09.282Z,99808.10
2023-05-15T11:34:11.522Z,99800.16
2023-05-15T11:35:37.991Z,99800.63
2023-05-15T11:36:43.067Z,99792.77
2023-05-15T11:37:51.401Z,99798.83
2023-05-15T11:38:55.819Z,99789.72
2023-05-15T11:39:58.748Z,99791.97
2023-05-15T11:41:03.428Z,99792.39
2023-05-15T11:42:12.793Z,99788.58
2023-05-15T11:43:25.065Z,99797.89
2023-05-15T11:44:31.057Z,99788.52
2023-05-15T11:45:37.715Z,99790.75
2023-05-15T11:46:42.939Z,99791.16
2023-05-15T11:47:45.925Z,99784.89
2023-05-15T11:48:50.705Z,99790.82
2023-05-15T11:49:53.579Z,99787.37
2023-05-15T11:50:57.653Z,99786.82
2023-05-15T11:52:00.960Z,99783.22
2023-05-15T11:53:06.212Z,99782.61
2023-05-15T11:54:13.014Z,99783.08
2023-05-15T11:55:17.653Z,99783.89
2023-05-15T11:56:22.423Z,99780.35
2023-05-15T11:57:25.877Z,99781.87
2023-05-15T11:58:29.361Z,99783.81
2023-05-15T11:59:33.310Z,99785.47
2023-05-15T12:00:35.581Z,99778.92
2023-05-15T12:01:42.771Z,99779.55
2023-05-15T12:02:45.138Z,99779.72
2023-05-15T12:03:49.272Z,99778.78
2023-05-15T12:04:51.868Z,99776.89
2023-05-15T12:05:59.524Z,99773.05
2023-05-15T12:07:02.999Z,99775.86
2023-05-15T12:08:11.639Z,99771.17
2023-05-15T12:09:19.650Z,99763.38
2023-05-15T12:10:27.539Z,99763.59
2023-05-15T12:11:31.628Z,99772.23
2023-05-15T12:12:36.594Z,99770.64
2023-05-15T12:13:38.952Z,99776.72
2023-05-15T12:14:41.163Z,99766.05
2023-05-15T12:15:45.354Z,99767.59
2023-05-15T12:16:51.937Z,99764.44
2023-05-15T12:17:56.640Z,99771.46
2023-05-15T12:19:00.015Z,99761.41
2023-05-15T12:20:04.133Z,99765.67
2023-05-15T12:21:06.639Z,99757.14
2023-05-15T12:22:09.956Z,99760.23
2023-05-15T12:23:17.582Z,99764.41